Terminal Aerodrome Forecast
Issued by NWS

Home | Current Version | Previous Version | Text Only | Print | Product List | Glossary On
Versions: 1 2 3 4 5 6 7 8 9 10 11 12 13 14 15 16 17 18 19 20 21 22 23 24 25 26 27
038
FTUS41 KPBZ 300859 AAB
TAFZZV
TAF AMD
KZZV 300859Z 3009/0106 07005KT P6SM BKN009
     FM301200 09005KT P6SM BKN100
     FM301900 12005KT 5SM -RA OVC040
     FM302100 12005KT 2SM -RA OVC020=

USA.gov is the U.S. government's official web portal to all federal, state and local government web resources and services.